MyFlightRoute - Storm Chaser


To sort multiple columns, hold SHIFT key while clicking column header

ICAOVisibilityWindSpeedGustCeilingWeatherTempDew PointSpreadFlight CategoryMETAR
KABQ9.007 9000LIGHT RAIN 18.3014.403.9VFRKABQ 020152Z 27007KT 9SM -RA BKN090 BKN150 BKN250 18/14 A3025 RMK AO2 TSE23 SLP174 CB DSNT NW P0005 T01830144
KAMA10.0011 26.7010.0016.7VFRKAMA 020153Z 17011KT 10SM CLR 27/10 A3006 RMK AO2 SLP125 T02670100
KAPA10.008 2200026.105.6020.5VFRKAPA 020153Z 25008KT 10SM SCT110 SCT150 BKN220 26/06 A3008 RMK AO2 SLP103 T02610056
KASE10.00616 900023.902.8021.1VFRKASE 291853Z VRB06G16KT 10SM FEW055 BKN090 BKN110 24/03 A3035 RMK AO2 RAB34E50 SLP154 P0000 T02390028
KBFI10.000 19.405.6013.8VFRKBFI 020153Z 00000KT 10SM CLR 19/06 A3018 RMK AO2 SLP219 T01940056
KBFL10.009 28.3011.1017.2VFRKBFL 020154Z AUTO 34009KT 10SM CLR 28/11 A2988 RMK AO2 SLP113 T02830111
KBIL10.0010 23.307.8015.5VFRKBIL 020153Z 04010KT 10SM SCT095 SCT180 23/08 A2992 RMK AO2 SLP103 CB SHRA DSNT N T02330078
KBOI10.008 21.707.2014.5VFRKBOI 020153Z 34008KT 10SM FEW110 22/07 A3007 RMK AO2 SLP165 T02170072
KBUR10.008 27.806.1021.7VFRKBUR 020153Z 28008KT 10SM CLR 28/06 A2985 RMK AO2 SLP096 T02780061 $
KBZN10.009 850015.6010.605VFRKBZN 020156Z 31009KT 10SM FEW060 BKN085 OVC100 16/11 A3005 RMK AO2 SLP157 T01560106
KCMA10.004 21.1012.808.3VFRKCMA 020155Z AUTO 20004KT 10SM CLR 21/13 A2987 RMK AO2 SLP124 T02110128
KCNO10.009 28.307.8020.5VFRKCNO 020153Z AUTO 23009KT 10SM CLR 28/08 A2986 RMK AO2 SLP107 T02830078
KCOS10.0012 10000LIGHT RAIN 19.4010.009.4VFRKCOS 020154Z 24012KT 10SM -RA SCT070 BKN100 BKN200 19/10 A3015 RMK AO2 LTG DSNT SW RAB07 TSB01E39 SLP128 CB DSNT S-SW MOV SW P0001 T01940100
KCPR10.0013 26.70-5.6032.3VFRKCPR 020153Z 27013KT 10SM CLR 27/M06 A2997 RMK AO2 SLP068 T02671056
KCRQ10.004 20.0013.306.7VFRKCRQ 020153Z AUTO VRB04KT 10SM CLR 20/13 A2987 RMK AO2 SLP111 T02000133
KDEN10.004 1500028.305.6022.7VFRKDEN 020153Z 19004KT 10SM FEW100 BKN150 BKN220 28/06 A3004 RMK AO2 SLP080 T02830056
KEGE10.003 25.004.4020.6VFRKEGE 020156Z AUTO 05003KT 10SM CLR 25/04 A3017 RMK AO2 SLP153 T02500044 PNO $
KELP10.008 31.10-1.7032.8VFRKELP 020151Z 13008KT 10SM FEW130 FEW250 31/M02 A2999 RMK AO2 SLP079 T03111017
KEMT10.007 27.0010.0017VFRKEMT 020153Z 19007KT 10SM CLR 27/10 A2984
KEUG10.0010 20.007.8012.2VFRKEUG 020154Z 02010KT 10SM CLR 20/08 A3014 RMK AO2 SLP206 T02000078
KFAT10.008 2000030.0010.6019.4VFRKFAT 020153Z 32008KT 10SM FEW080 SCT150 BKN200 30/11 A2990 RMK AO2 SLP122 T03000106
KFLG10.008 23.301.1022.2VFRKFLG 020157Z 23008KT 10SM CLR 23/01 A3024 RMK AO2 SLP135 T02330011
KFMN10.0012 22.208.3013.9VFRKFMN 020153Z 11012KT 10SM SCT110 22/08 A3013 RMK AO2 RAE0055 SLP149 P0000 T02220083
KFUL10.003 25.6010.0015.6VFRKFUL 020153Z VRB03KT 10SM CLR 26/10 A2984 RMK AO2 SLP103 T02560100
KGCN10.00515 25.00-3.9028.9VFRKGCN 020154Z AUTO 24005G15KT 10SM CLR 25/M04 A3020 RMK AO2 SLP127 T02501039
KGEG10.0011 18.902.2016.7VFRKGEG 020153Z 23011KT 10SM FEW060 FEW150 19/02 A3007 RMK AO2 SLP180 T01890022
KGJT10.008 30.00-5.0035VFRKGJT 020153Z 29008KT 10SM CLR 30/M05 A3000 RMK AO2 SLP080 T03001050
KGPI10.0015 900014.408.306.1VFRKGPI 020155Z 17015KT 10SM SCT075 BKN090 14/08 A3004 RMK AO2 SLP175 T01440083
KHHR10.00716 22.2011.1011.1VFRKHHR 020153Z 28007G16KT 10SM CLR 22/11 A2985 RMK AO2 SLP106 T02220111 $
KHLN10.001927 750017.204.4012.8VFRKHLN 020153Z 29019G27KT 10SM FEW060 OVC075 17/04 A3006 RMK AO2 PK WND 29027/0146 SLP177 T01720044
KHND10.0010 0.000.000VFRKHND 020155Z 25010KT 10SM CLR A2988 RMK AWOS OTS
KIFP10.009 39.00-3.0042VFRKIFP 020155Z AUTO 18009KT 10SM CLR 39/M03 A2974 RMK AO2
KINS10.0013 32.60-7.7040.3VFRKINS 020158Z AUTO 26013KT 10SM CLR 33/M08 A2989 RMK AO2 SLP073 T03261077 $
KJAC10.00819 20.004.4015.6VFRKJAC 020156Z 28008G19KT 10SM CLR 20/04 A3014 RMK AO2 SLP158 T02000044
KLAS10.009 2500035.00-2.2037.2VFRKLAS 020156Z 25009KT 10SM FEW200 BKN250 35/M02 A2984 RMK AO2 SLP076 T03501022
KLAX10.0017 2000020.6011.708.9VFRKLAX 020153Z 26017KT 10SM FEW050 SCT150 OVC200 21/12 A2984 RMK AO2 SLP104 T02060117
KLGB10.0014 2000022.808.9013.9VFRKLGB 020159Z 28014KT 10SM SCT150 OVC200 23/09 A2984 RMK AO2 T02280089
KLSV10.0013 36.30-3.2039.5VFRKLSV 020058Z AUTO 19013KT 10SM CLR 36/M03 A2979 RMK AO2 SLP065 T03631032 $
KMFR10.0011 26.109.4016.7VFRKMFR 020153Z 02011KT 10SM FEW070 26/09 A3003 RMK AO2 SLP161 T02610094
KMHV10.001419 27.009.0018VFRKMHV 020140Z AUTO 29014G19KT 10SM CLR 27/09 A2994 RMK A01
KMRY10.007 16.7011.705VFRKMRY 020154Z AUTO 29007KT 10SM FEW012 17/12 A3001 RMK AO2 SLP175 T01670117 $
KMSO10.003 13.909.404.5VFRKMSO 020153Z 31003KT 10SM SCT065 14/09 A3012 RMK AO2 RAB03E42 SLP200 P0001 T01390094
KMYF10.007 22.8010.6012.2VFRKMYF 020153Z AUTO 32007KT 10SM CLR 23/11 A2989 RMK AO2 SLP117 T02280106
KNYL7.009 36.7010.0026.7VFRKNYL 020157Z 19009KT 7SM SCT200 37/10 A2972 RMK AO2 SLP061 T03670100 $
KOAK10.0012 20.0011.708.3VFRKOAK 020153Z 29012KT 10SM FEW010 FEW030 SCT180 SCT250 20/12 A2998 RMK AO2 SLP151 T02000117
KOLM10.003 18.906.1012.8VFRKOLM 020154Z 25003KT 10SM FEW065 19/06 A3017 RMK AO2 SLP218 T01890061
KONT10.0010 2500028.307.8020.5VFRKONT 020153Z 24010KT 10SM SCT140 OVC250 28/08 A2986 RMK AO2 SLP097 T02830078
KOTH10.002024 13.909.404.5VFRKOTH 020156Z 35020G24KT 10SM CLR 14/09 A3018 RMK AO2 PK WND 35029/0101 SLP218 T01390094
KOXR10.0011 17.8013.304.5VFRKOXR 020151Z 28011KT 10SM CLR 18/13 A2986 RMK AO2 SLP111 T01780133
KPAE10.007 16.106.1010VFRKPAE 020153Z 02007KT 10SM CLR 16/06 A3020 RMK AO2 SLP226 T01610061
KPDX10.00615 21.705.6016.1VFRKPDX 020153Z 36006G15KT 10SM FEW050 22/06 A3015 RMK AO2 SLP210 T02170056
KPHX10.001117 39.402.2037.2VFRKPHX 020151Z 29011G17KT 10SM FEW090 FEW170 SCT250 39/02 A2974 RMK AO2 SLP049 CB DSNT NE AND S T03940022 $
KPOC10.008 27.0012.0015VFRKPOC 012347Z 24008KT 10SM CLR 27/12 A2988 RMK LAST
KPRC10.008 28.30-5.6033.9VFRKPRC 020153Z 25008KT 10SM CLR 28/M06 A3009 RMK AO2 SLP106 T02831056
KPSC10.008 27.201.1026.1VFRKPSC 020153Z 23008KT 10SM CLR 27/01 A3001 RMK AO2 SLP162 T02720011
KPSP10.0016 35.0010.0025VFRKPSP 020153Z 32016KT 10SM CLR 35/10 A2975 RMK AO2 SLP072 T03500100 $
KRAL10.008 2500027.207.8019.4VFRKRAL 020153Z 24008KT 10SM OVC250 27/08 A2986 RMK AO2 RAB02E06 SLP097 P0000 T02720078
KRDD10.005 29.408.3021.1VFRKRDD 020153Z 06005KT 10SM CLR 29/08 A2994 RMK AO2 SLP132 T02940083
KRIV10.008 26.309.6016.7VFRKRIV 020158Z AUTO 30008KT 10SM CLR 26/10 A2989 RMK AO2 SLP111 T02630096
KRNM10.006 21.7011.7010VFRKRNM 020153Z 26006KT 10SM CLR 22/12 A2990 RMK AO2 SLP116 T02170117
KRNO10.008 1600020.005.6014.4VFRKRNO 020155Z 29008KT 10SM FEW095 SCT120 BKN160 OVC210 20/06 A3011 RMK AO2 SLP157 VIRGA SE T02000056
KSAC10.005 30.007.2022.8VFRKSAC 020153Z 32005KT 10SM CLR 30/07 A2991 RMK AO2 SLP129 T03000072
KSAN10.004 2500021.7013.907.8VFRKSAN 020151Z 29004KT 10SM FEW010 SCT200 BKN250 22/14 A2990 RMK AO2 SLP123 T02170139
KSBA10.005 1700023.3012.8010.5VFRKSBA 020153Z 23005KT 10SM BKN170 23/13 A2986 RMK AO2 SLP111 T02330128
KSBD7.0010 800029.008.0021VFRKSBD 020150Z 25010KT 7SM BKN080 OVC150 29/08 A2987
KSBP10.0013 16.1011.704.4VFRKSBP 020156Z 30013KT 10SM CLR 16/12 A2996 RMK AO2 SLP144 T01610117
KSDM10.006 20.6015.005.6VFRKSDM 020153Z 27006KT 10SM CLR 21/15 A2989 RMK AO2 SLP119 T02060150
KSEA10.007 19.406.7012.7VFRKSEA 020153Z 29007KT 10SM FEW050 19/07 A3018 RMK AO2 SLP226 T01940067
KSEE10.0011 24.007.0017VFRKSEE 020155Z AUTO 29011KT 10SM CLR 24/07 A2987 RMK AO2
KSFO10.0015 17.8010.607.2VFRKSFO 020156Z 28015KT 10SM FEW010 SCT200 18/11 A2997 RMK AO2 SLP150 T01780106
KSJC10.0013 22.2010.6011.6VFRKSJC 020153Z 33013KT 10SM FEW025 SCT100 SCT200 22/11 A2996 RMK AO2 SLP145 T02220106
KSLC10.0012 2300029.401.1028.3VFRKSLC 020154Z 36012KT 10SM FEW095 SCT150 BKN230 29/01 A2994 RMK AO2 SLP077 T02940011
KSMF10.004 28.9010.0018.9VFRKSMF 020153Z 36004KT 10SM SCT250 29/10 A2991 RMK AO2 SLP128 T02890100
KSMO10.009 21.7011.7010VFRKSMO 020151Z AUTO 25009KT 10SM CLR 22/12 A2984 RMK AO2 SLP103 T02170117
KSMX10.0010 2000016.1011.105VFRKSMX 020151Z 29010KT 10SM FEW010 FEW170 BKN200 16/11 A2997 RMK AO2 SLP152 T01610111
KSNA10.005 2200023.3011.7011.6VFRKSNA 020153Z 24005KT 10SM FEW030 BKN220 23/12 A2986 RMK AO2 SLP109 T02330117
KSUN10.0011 800018.003.0015VFRKSUN 020155Z 26011KT 10SM OVC080 18/03 A3018
KTOA10.001823 2500024.0010.0014VFRKTOA 012247Z 25018G23KT 10SM FEW120 BKN250 24/10 A2987
KTPH10.0010 24.40-2.8027.2VFRKTPH 020156Z AUTO 23010KT 10SM CLR 24/M03 A3008 RMK AO2 SLP124 T02441028
KTUS10.0016 28.9010.6018.3VFRKTUS 020153Z 16016KT 10SM FEW090 29/11 A2990 RMK AO2 PK WND 19037/0054 RAE14 SLP079 P0004 T02890106 $
KVCV10.004 0.000.000VFRKVCV 012245Z 16004KT 10SM SKC A2994
KVGT10.008 36.10-1.7037.8VFRKVGT 020153Z AUTO 26008KT 10SM CLR 36/M02 A2983 RMK AO2 SLP090 T03611017
KVNY10.007 27.807.2020.6VFRKVNY 020151Z 28007KT 10SM CLR 28/07 A2985 RMK AO2 SLP100 T02780072
KWHP10.007 27.007.0020VFRKWHP 020155Z 23007KT 10SM SKC 27/07 A2990
KWJF10.0013 27.808.3019.5VFRKWJF 020156Z 25013KT 10SM CLR 28/08 A2992 RMK AO2 SLP115 T02780083
KYKM10.006 24.002.0022VFRKYKM 020153Z 35006KT 10SM CLR 24/02 A3004 RMK BW